createdAt,value
2023-09-11T00:00:06.082Z,93.70
2023-09-11T00:02:32.918Z,93.90
2023-09-11T00:04:59.752Z,93.70
2023-09-11T00:07:26.571Z,93.60
2023-09-11T00:09:53.425Z,93.50
2023-09-11T00:12:20.268Z,93.50
2023-09-11T00:14:47.177Z,93.30
2023-09-11T00:17:14.137Z,93.60
2023-09-11T00:19:41.017Z,93.70
2023-09-11T00:22:07.909Z,93.70
2023-09-11T00:24:34.707Z,94.30
2023-09-11T00:27:01.558Z,93.80
2023-09-11T00:29:28.833Z,94.40
2023-09-11T00:31:55.715Z,94.60
2023-09-11T00:34:22.605Z,94.90
2023-09-11T00:36:49.389Z,94.30
2023-09-11T00:39:16.253Z,94.20
2023-09-11T00:41:44.383Z,94.10
2023-09-11T00:44:11.372Z,94.20
2023-09-11T00:46:38.404Z,94.30
2023-09-11T00:49:05.621Z,94.70
2023-09-11T00:51:32.516Z,94.70
2023-09-11T00:54:00.127Z,95.30
2023-09-11T00:56:27.354Z,94.70
2023-09-11T00:58:54.549Z,94.60
2023-09-11T01:01:24.059Z,94.20
2023-09-11T01:03:51.606Z,94.40
2023-09-11T01:10:07.450Z,94.40
2023-09-11T01:12:38.983Z,94.90
2023-09-11T01:15:07.162Z,95.10
2023-09-11T01:17:44.194Z,95.10
2023-09-11T01:20:13.874Z,95.30
2023-09-11T01:22:51.248Z,95.70
2023-09-11T01:25:48.794Z,95.70
2023-09-11T01:28:30.337Z,96.10
2023-09-11T01:31:00.270Z,96.50
2023-09-11T01:33:27.253Z,96.10
2023-09-11T01:35:54.090Z,96.00
2023-09-11T01:38:21.126Z,96.10
2023-09-11T01:40:53.363Z,95.90
2023-09-11T01:43:22.447Z,96.00
2023-09-11T01:45:49.915Z,96.30
2023-09-11T01:48:17.862Z,96.40
2023-09-11T01:50:45.472Z,96.00
2023-09-11T01:53:13.162Z,96.60
2023-09-11T01:55:40.287Z,95.90
2023-09-11T01:58:07.121Z,95.90
2023-09-11T02:00:34.006Z,96.20
2023-09-11T02:03:01.166Z,96.00
2023-09-11T02:05:28.117Z,96.50
2023-09-11T02:07:54.980Z,96.50
2023-09-11T02:10:21.798Z,96.80
2023-09-11T02:12:48.775Z,96.50
2023-09-11T02:15:16.217Z,96.80
2023-09-11T02:17:43.124Z,97.20
2023-09-11T02:20:10.378Z,97.10
2023-09-11T02:22:37.201Z,96.80
2023-09-11T02:25:04.186Z,97.50
2023-09-11T02:27:31.072Z,97.60
2023-09-11T02:29:59.047Z,97.90
2023-09-11T02:32:26.678Z,98.00
2023-09-11T02:34:53.488Z,97.60
2023-09-11T02:37:22.318Z,97.50
2023-09-11T02:39:49.109Z,97.70
2023-09-11T02:42:15.911Z,97.40
2023-09-11T02:44:44.354Z,97.40
2023-09-11T02:47:11.234Z,97.40
2023-09-11T02:49:38.048Z,97.20
2023-09-11T02:52:05.352Z,97.00
2023-09-11T02:54:32.240Z,97.10
2023-09-11T02:56:59.060Z,96.80
2023-09-11T02:59:25.974Z,96.90
2023-09-11T03:01:52.824Z,97.00
2023-09-11T03:04:19.616Z,97.30
2023-09-11T03:06:46.538Z,97.30
2023-09-11T03:09:13.362Z,97.10
2023-09-11T03:11:40.325Z,97.40
2023-09-11T03:14:07.180Z,97.00
2023-09-11T03:16:33.975Z,97.30
2023-09-11T03:19:00.869Z,97.40
2023-09-11T03:21:27.729Z,98.00
2023-09-11T03:23:54.581Z,97.80
2023-09-11T03:26:21.554Z,98.20
2023-09-11T03:28:50.902Z,98.00
2023-09-11T03:31:18.231Z,98.70
2023-09-11T03:33:45.811Z,98.60
2023-09-11T03:36:17.715Z,98.40
2023-09-11T03:38:45.098Z,98.30
2023-09-11T03:41:13.429Z,98.40
2023-09-11T03:43:40.242Z,98.60
2023-09-11T03:46:07.173Z,98.50
2023-09-11T03:48:34.152Z,98.80
2023-09-11T03:51:01.156Z,98.90
2023-09-11T03:53:28.082Z,99.40
2023-09-11T03:55:54.997Z,99.20
2023-09-11T03:58:21.912Z,99.00
2023-09-11T04:00:48.771Z,98.90
2023-09-11T04:03:15.751Z,98.50
2023-09-11T04:05:42.846Z,98.70
2023-09-11T04:08:09.919Z,99.20
2023-09-11T04:10:36.790Z,99.50
2023-09-11T04:13:03.702Z,99.60
2023-09-11T04:15:30.639Z,99.60
2023-09-11T04:17:58.697Z,99.90
2023-09-11T04:20:25.888Z,100.00
2023-09-11T04:22:52.757Z,100.00
2023-09-11T04:25:19.715Z,100.00
2023-09-11T04:27:46.569Z,100.00
2023-09-11T04:30:13.985Z,100.00
2023-09-11T04:32:41.042Z,100.00
2023-09-11T04:35:08.807Z,100.00
2023-09-11T04:37:36.670Z,100.00
2023-09-11T04:40:07.659Z,100.00
2023-09-11T04:42:37.004Z,100.00
2023-09-11T04:45:07.470Z,100.00
2023-09-11T04:47:35.518Z,100.00
2023-09-11T04:50:02.474Z,100.00
2023-09-11T04:52:29.685Z,100.00
2023-09-11T04:55:06.451Z,100.00
2023-09-11T04:57:33.425Z,100.00
2023-09-11T05:00:01.243Z,100.00
2023-09-11T05:02:28.398Z,100.00
2023-09-11T05:04:55.238Z,100.00
2023-09-11T05:07:22.161Z,100.00
2023-09-11T05:09:49.202Z,100.00
2023-09-11T05:12:16.093Z,100.00
2023-09-11T05:14:45.496Z,100.00
2023-09-11T05:17:13.057Z,100.00
2023-09-11T05:19:39.928Z,100.00
2023-09-11T05:22:07.224Z,100.00
2023-09-11T05:24:35.188Z,100.00
2023-09-11T05:27:02.134Z,100.00
2023-09-11T05:29:29.159Z,100.00
2023-09-11T05:31:56.153Z,100.00
2023-09-11T05:34:23.176Z,100.00
2023-09-11T05:36:50.105Z,100.00
2023-09-11T05:39:17.125Z,100.00
2023-09-11T05:41:44.002Z,100.00
2023-09-11T05:44:10.866Z,100.00
2023-09-11T05:46:37.804Z,100.00
2023-09-11T05:49:04.869Z,100.00
2023-09-11T05:51:31.773Z,100.00
2023-09-11T05:53:58.744Z,100.00
2023-09-11T05:56:25.983Z,100.00
2023-09-11T05:58:52.906Z,100.00
2023-09-11T06:01:19.777Z,100.00
2023-09-11T06:03:46.839Z,100.00
2023-09-11T06:06:14.039Z,100.00
2023-09-11T06:08:41.126Z,100.00
2023-09-11T06:11:08.185Z,100.00
2023-09-11T06:13:37.080Z,100.00
2023-09-11T06:16:04.304Z,100.00
2023-09-11T06:18:31.310Z,100.00
2023-09-11T06:20:58.693Z,100.00
2023-09-11T06:23:25.733Z,100.00
2023-09-11T06:25:52.674Z,100.00
2023-09-11T06:28:19.586Z,100.00
2023-09-11T06:30:46.563Z,100.00
2023-09-11T06:33:13.584Z,100.00
2023-09-11T06:35:40.548Z,100.00
2023-09-11T06:38:07.597Z,100.00
2023-09-11T06:40:34.555Z,100.00
2023-09-11T06:43:02.016Z,100.00
2023-09-11T06:45:28.997Z,100.00
2023-09-11T06:47:56.024Z,100.00
2023-09-11T06:50:23.134Z,100.00
2023-09-11T06:52:49.989Z,100.00
2023-09-11T06:55:16.979Z,100.00
2023-09-11T06:57:58.526Z,99.60
2023-09-11T07:00:25.657Z,100.00
2023-09-11T07:02:52.807Z,99.40
2023-09-11T07:05:24.148Z,99.60
2023-09-11T07:07:50.995Z,99.50
2023-09-11T07:10:29.981Z,100.00
2023-09-11T07:13:01.568Z,99.40
2023-09-11T07:15:28.504Z,99.10
2023-09-11T07:17:55.501Z,98.90
2023-09-11T07:20:22.946Z,98.20
2023-09-11T07:22:49.954Z,98.90
2023-09-11T07:25:18.368Z,98.60
2023-09-11T07:27:45.467Z,99.60
2023-09-11T07:30:12.600Z,98.60
2023-09-11T07:32:39.745Z,98.90
2023-09-11T07:35:07.596Z,98.60
2023-09-11T07:37:34.736Z,97.70
2023-09-11T07:40:02.473Z,96.70
2023-09-11T07:42:29.382Z,96.10
2023-09-11T07:44:56.416Z,95.70
2023-09-11T07:47:23.324Z,94.70
2023-09-11T07:49:50.295Z,96.00
2023-09-11T07:52:17.191Z,95.10
2023-09-11T07:54:44.403Z,94.80
2023-09-11T07:57:11.345Z,93.90
2023-09-11T07:59:38.249Z,93.40
2023-09-11T08:02:05.182Z,93.80
2023-09-11T08:04:33.414Z,93.00
2023-09-11T08:07:00.442Z,92.20
2023-09-11T08:09:27.600Z,93.40
2023-09-11T08:11:54.465Z,92.00
2023-09-11T08:14:23.897Z,93.30
2023-09-11T08:16:51.112Z,92.30
2023-09-11T08:19:18.023Z,92.20
2023-09-11T08:21:44.906Z,91.30
2023-09-11T08:24:12.716Z,91.00
2023-09-11T08:26:39.905Z,90.30
2023-09-11T08:29:12.220Z,91.40
2023-09-11T08:31:39.539Z,89.40
2023-09-11T08:34:06.592Z,86.70
2023-09-11T08:36:34.035Z,85.20
2023-09-11T08:39:01.143Z,83.90
2023-09-11T08:41:29.112Z,82.30
2023-09-11T08:43:56.049Z,82.30
2023-09-11T08:46:23.868Z,81.10
2023-09-11T08:48:55.929Z,79.10
2023-09-11T08:51:40.516Z,78.00
2023-09-11T08:54:11.069Z,76.90
2023-09-11T08:56:41.596Z,76.40
2023-09-11T08:59:11.355Z,75.10
2023-09-11T09:01:40.133Z,72.40
2023-09-11T09:04:08.436Z,72.00
2023-09-11T09:06:36.929Z,70.90
2023-09-11T09:09:03.941Z,69.90
2023-09-11T09:11:32.744Z,68.80
2023-09-11T09:14:00.529Z,68.30
2023-09-11T09:16:27.601Z,67.90
2023-09-11T09:18:54.790Z,67.80
2023-09-11T09:21:26.917Z,65.70
2023-09-11T09:23:54.322Z,65.60
2023-09-11T09:26:23.256Z,64.90
2023-09-11T09:28:53.069Z,64.10
2023-09-11T09:31:27.033Z,63.40
2023-09-11T09:33:58.004Z,62.10
2023-09-11T09:36:25.410Z,61.10
2023-09-11T09:38:52.843Z,59.70
2023-09-11T09:41:22.568Z,58.30
2023-09-11T09:43:54.665Z,58.20
2023-09-11T09:46:23.239Z,56.60
2023-09-11T09:48:50.698Z,57.40
2023-09-11T09:51:17.827Z,56.20
2023-09-11T09:53:47.820Z,56.80
2023-09-11T09:56:16.239Z,56.10
2023-09-11T09:58:46.128Z,55.90
2023-09-11T10:01:18.672Z,54.10
2023-09-11T10:03:50.443Z,53.70
2023-09-11T10:06:18.388Z,53.10
2023-09-11T10:08:46.365Z,52.90
2023-09-11T10:11:30.272Z,55.10
2023-09-11T10:14:18.738Z,53.20
2023-09-11T10:16:47.564Z,53.50
2023-09-11T10:19:14.592Z,52.60
2023-09-11T10:21:41.576Z,52.60
2023-09-11T10:24:11.432Z,54.10
2023-09-11T10:27:03.998Z,52.00
2023-09-11T10:29:48.564Z,52.60
2023-09-11T10:32:27.690Z,52.90
2023-09-11T10:34:54.922Z,52.40
2023-09-11T10:37:22.712Z,51.40
2023-09-11T10:39:52.009Z,52.00
2023-09-11T10:42:19.431Z,53.60
2023-09-11T10:44:46.352Z,53.60
2023-09-11T10:47:13.341Z,55.30
2023-09-11T10:49:42.562Z,53.90
2023-09-11T10:52:10.110Z,54.40
2023-09-11T10:54:37.479Z,55.00
2023-09-11T10:57:06.085Z,53.80
2023-09-11T10:59:33.671Z,55.30
2023-09-11T11:02:00.912Z,52.90
2023-09-11T11:04:31.760Z,52.50
2023-09-11T11:07:00.902Z,52.90
2023-09-11T11:09:42.255Z,52.00
2023-09-11T11:12:14.733Z,52.60
2023-09-11T11:14:41.932Z,51.70
2023-09-11T11:17:11.798Z,52.10
2023-09-11T11:19:53.303Z,49.40
2023-09-11T11:22:40.458Z,48.00
2023-09-11T11:25:11.694Z,50.20
2023-09-11T11:27:43.017Z,50.40
2023-09-11T11:30:10.505Z,48.60
2023-09-11T11:32:42.462Z,48.90
2023-09-11T11:35:12.286Z,48.20
2023-09-11T11:37:46.432Z,47.60
2023-09-11T11:40:14.996Z,45.30
2023-09-11T11:42:42.722Z,46.70
2023-09-11T11:45:10.134Z,45.60
2023-09-11T11:47:37.896Z,44.20
2023-09-11T11:50:09.534Z,44.90
2023-09-11T11:52:36.416Z,44.60
2023-09-11T11:55:22.174Z,43.60
2023-09-11T11:57:53.783Z,42.60
2023-09-11T12:00:21.694Z,41.90
2023-09-11T12:02:48.642Z,41.70
2023-09-11T12:05:16.726Z,41.50
2023-09-11T12:07:44.552Z,40.40
2023-09-11T12:10:12.084Z,41.90
2023-09-11T12:12:42.338Z,42.30
2023-09-11T12:15:11.394Z,41.60
2023-09-11T12:17:54.751Z,40.30
2023-09-11T12:20:26.018Z,39.30
2023-09-11T12:22:52.969Z,40.10
2023-09-11T12:25:20.147Z,38.80
2023-09-11T12:27:47.433Z,38.60
2023-09-11T12:30:15.317Z,38.40
2023-09-11T12:32:42.297Z,39.10
2023-09-11T12:35:09.712Z,39.00
2023-09-11T12:37:41.487Z,38.70
2023-09-11T12:40:12.315Z,37.40
2023-09-11T12:42:40.668Z,38.20
2023-09-11T12:45:09.820Z,37.60
2023-09-11T12:47:37.624Z,37.40
2023-09-11T12:50:05.309Z,37.30
2023-09-11T12:52:32.286Z,39.00
2023-09-11T12:54:59.169Z,39.20
2023-09-11T12:57:27.229Z,38.60
2023-09-11T12:59:54.762Z,38.20
2023-09-11T13:02:22.253Z,38.90
2023-09-11T13:04:49.611Z,37.20
2023-09-11T13:07:16.512Z,37.80
2023-09-11T13:09:44.054Z,37.90
2023-09-11T13:12:11.048Z,38.30
2023-09-11T13:14:38.135Z,38.20
2023-09-11T13:17:05.365Z,37.70
2023-09-11T13:19:32.231Z,40.20
2023-09-11T13:21:59.226Z,39.40
2023-09-11T13:24:26.284Z,40.00
2023-09-11T13:26:53.287Z,39.70
2023-09-11T13:29:20.333Z,40.20
2023-09-11T13:31:47.237Z,40.00
2023-09-11T13:34:14.620Z,41.00
2023-09-11T13:36:41.677Z,38.90
2023-09-11T13:39:08.710Z,39.10
2023-09-11T13:41:36.020Z,39.90
2023-09-11T13:44:03.859Z,39.50
2023-09-11T13:46:30.910Z,38.80
2023-09-11T13:48:57.816Z,38.40
2023-09-11T13:51:27.545Z,38.40
2023-09-11T13:53:54.764Z,40.00
2023-09-11T13:56:23.495Z,40.60
2023-09-11T13:58:53.897Z,40.10
2023-09-11T14:01:21.005Z,40.50
2023-09-11T14:03:48.152Z,38.60
2023-09-11T14:06:15.152Z,39.00
2023-09-11T14:08:42.325Z,39.60
2023-09-11T14:11:09.525Z,39.20
2023-09-11T14:13:36.786Z,39.70
2023-09-11T14:16:04.761Z,39.30
2023-09-11T14:18:32.034Z,40.80
2023-09-11T14:20:59.222Z,37.70
2023-09-11T14:23:26.265Z,39.10
2023-09-11T14:25:55.409Z,37.80
2023-09-11T14:28:22.430Z,38.70
2023-09-11T14:30:49.301Z,38.40
2023-09-11T14:33:16.253Z,38.60
2023-09-11T14:35:43.216Z,37.60
2023-09-11T14:38:10.106Z,37.60
2023-09-11T14:40:37.149Z,36.70
2023-09-11T14:43:04.471Z,38.70
2023-09-11T14:45:31.562Z,38.10
2023-09-11T14:47:58.503Z,38.30
2023-09-11T14:50:25.870Z,39.50
2023-09-11T14:52:53.793Z,38.80
2023-09-11T14:55:20.738Z,38.10
2023-09-11T14:57:47.637Z,37.50
2023-09-11T15:00:15.571Z,39.20
2023-09-11T15:02:42.736Z,39.10
2023-09-11T15:05:09.847Z,39.30
2023-09-11T15:07:36.851Z,40.80
2023-09-11T15:10:03.853Z,40.50
2023-09-11T15:12:30.908Z,40.90
2023-09-11T15:14:57.816Z,40.10
2023-09-11T15:17:24.752Z,39.70
2023-09-11T15:19:51.691Z,40.20
2023-09-11T15:22:18.769Z,39.50
2023-09-11T15:24:45.648Z,39.70
2023-09-11T15:27:12.832Z,41.40
2023-09-11T15:29:39.979Z,41.60
2023-09-11T15:32:12.142Z,39.50
2023-09-11T15:34:41.789Z,39.30
2023-09-11T15:37:18.821Z,41.30
2023-09-11T15:39:46.832Z,40.30
2023-09-11T15:42:13.748Z,41.50
2023-09-11T15:44:40.774Z,42.50
2023-09-11T15:47:07.697Z,43.00
2023-09-11T15:49:34.670Z,43.00
2023-09-11T15:52:05.189Z,42.20
2023-09-11T15:54:34.019Z,40.70
2023-09-11T15:57:01.324Z,42.00
2023-09-11T15:59:28.454Z,43.10
2023-09-11T16:01:55.474Z,44.90
2023-09-11T16:04:22.495Z,45.20
2023-09-11T16:06:49.648Z,46.50
2023-09-11T16:09:16.662Z,46.00
2023-09-11T16:11:44.203Z,48.50
2023-09-11T16:14:11.232Z,46.10
2023-09-11T16:16:41.126Z,48.10
2023-09-11T16:19:08.151Z,50.60
2023-09-11T16:21:40.760Z,50.20
2023-09-11T16:24:08.653Z,49.90
2023-09-11T16:26:36.236Z,50.40
2023-09-11T16:29:03.608Z,51.80
2023-09-11T16:31:31.233Z,51.10
2023-09-11T16:33:58.624Z,52.50
2023-09-11T16:36:26.230Z,51.60
2023-09-11T16:38:53.364Z,53.00
2023-09-11T16:41:20.423Z,52.90
2023-09-11T16:43:47.297Z,53.60
2023-09-11T16:46:14.284Z,52.60
2023-09-11T16:48:41.946Z,52.90
2023-09-11T16:51:09.568Z,53.40
2023-09-11T16:53:36.589Z,53.90
2023-09-11T16:56:03.747Z,54.40
2023-09-11T16:58:30.628Z,54.70
2023-09-11T17:01:09.491Z,56.30
2023-09-11T17:03:36.671Z,56.20
2023-09-11T17:06:06.831Z,57.20
2023-09-11T17:08:34.042Z,58.80
2023-09-11T17:11:01.174Z,59.60
2023-09-11T17:13:28.297Z,58.40
2023-09-11T17:15:57.117Z,59.80
2023-09-11T17:18:24.112Z,60.10
2023-09-11T17:20:52.836Z,60.90
2023-09-11T17:23:19.783Z,60.60
2023-09-11T17:25:47.350Z,60.80
2023-09-11T17:28:16.720Z,62.10
2023-09-11T17:30:43.736Z,62.30
2023-09-11T17:33:11.272Z,67.30
2023-09-11T17:35:38.757Z,66.90
2023-09-11T17:38:06.224Z,66.70
2023-09-11T17:40:33.303Z,67.30
2023-09-11T17:43:00.378Z,66.70
2023-09-11T17:45:27.364Z,68.10
2023-09-11T17:47:54.411Z,70.10
2023-09-11T17:50:21.363Z,70.40
2023-09-11T17:52:49.180Z,70.20
2023-09-11T17:55:16.401Z,70.40
2023-09-11T17:57:43.420Z,70.80
2023-09-11T18:00:11.245Z,72.00
2023-09-11T18:02:40.725Z,72.40
2023-09-11T18:05:08.052Z,73.60
2023-09-11T18:07:36.648Z,74.00
2023-09-11T18:10:05.107Z,74.00
2023-09-11T18:12:32.781Z,74.20
2023-09-11T18:15:00.035Z,73.90
2023-09-11T18:17:30.128Z,75.10
2023-09-11T18:19:58.015Z,75.20
2023-09-11T18:22:24.844Z,76.10
2023-09-11T18:24:51.751Z,76.60
2023-09-11T18:27:18.628Z,76.80
2023-09-11T18:29:46.374Z,77.50
2023-09-11T18:32:13.926Z,76.90
2023-09-11T18:34:41.022Z,77.90
2023-09-11T18:37:08.102Z,77.70
2023-09-11T18:39:35.244Z,78.70
2023-09-11T18:42:05.326Z,79.00
2023-09-11T18:44:32.268Z,79.30
2023-09-11T18:46:59.099Z,79.70
2023-09-11T18:49:27.844Z,80.10
2023-09-11T18:51:56.796Z,80.60
2023-09-11T18:54:25.728Z,81.80
2023-09-11T18:56:52.934Z,81.40
2023-09-11T18:59:19.890Z,81.60
2023-09-11T19:01:47.764Z,82.30
2023-09-11T19:04:15.663Z,82.70
2023-09-11T19:06:44.775Z,82.30
2023-09-11T19:09:12.242Z,82.90
2023-09-11T19:11:39.364Z,84.70
2023-09-11T19:14:06.259Z,84.30
2023-09-11T19:16:35.855Z,83.90
2023-09-11T19:19:02.807Z,84.10
2023-09-11T19:21:30.624Z,84.00
2023-09-11T19:23:57.650Z,84.80
2023-09-11T19:26:24.773Z,85.40
2023-09-11T19:28:52.807Z,85.70
2023-09-11T19:31:21.044Z,85.10
2023-09-11T19:33:48.815Z,85.90
2023-09-11T19:36:16.608Z,86.40
2023-09-11T19:38:45.372Z,86.40
2023-09-11T19:41:12.776Z,86.90
2023-09-11T19:43:39.780Z,87.70
2023-09-11T19:46:07.550Z,87.80
2023-09-11T19:48:37.302Z,87.40
2023-09-11T19:51:05.242Z,87.60
2023-09-11T19:53:32.310Z,88.00
2023-09-11T19:56:00.413Z,87.90
2023-09-11T19:58:29.361Z,88.30
2023-09-11T20:00:56.650Z,87.80
2023-09-11T20:03:23.973Z,88.20
2023-09-11T20:05:51.214Z,88.60
2023-09-11T20:08:18.285Z,88.50
2023-09-11T20:10:45.379Z,88.80
2023-09-11T20:13:12.458Z,89.30
2023-09-11T20:15:39.584Z,89.20
2023-09-11T20:18:06.632Z,89.90
2023-09-11T20:20:33.767Z,90.20
2023-09-11T20:23:00.609Z,90.30
2023-09-11T20:25:28.765Z,90.40
2023-09-11T20:27:57.364Z,89.90
2023-09-11T20:30:27.721Z,90.20
2023-09-11T20:32:54.785Z,90.80
2023-09-11T20:35:21.714Z,90.70
2023-09-11T20:37:48.676Z,90.90
2023-09-11T20:40:15.524Z,90.70
2023-09-11T20:42:42.755Z,90.90
2023-09-11T20:45:10.416Z,90.80
2023-09-11T20:47:37.560Z,91.00
2023-09-11T20:50:08.334Z,91.00
2023-09-11T20:52:35.247Z,91.20
2023-09-11T20:55:05.188Z,91.30
2023-09-11T20:57:32.769Z,91.20
2023-09-11T20:59:59.877Z,91.60
2023-09-11T21:02:26.849Z,91.70
2023-09-11T21:04:56.505Z,90.80
2023-09-11T21:07:23.605Z,90.90
2023-09-11T21:09:50.569Z,90.40
2023-09-11T21:12:17.579Z,90.20
2023-09-11T21:14:44.582Z,90.40
2023-09-11T21:17:11.431Z,92.10
2023-09-11T21:19:38.391Z,92.70
2023-09-11T21:22:05.243Z,93.30
2023-09-11T21:24:32.209Z,93.80
2023-09-11T21:26:59.330Z,93.70
2023-09-11T21:29:26.330Z,93.60
2023-09-11T21:31:53.234Z,93.50
2023-09-11T21:34:20.164Z,93.90
2023-09-11T21:36:47.179Z,94.10
2023-09-11T21:39:16.740Z,94.30
2023-09-11T21:41:43.688Z,93.90
2023-09-11T21:44:10.625Z,94.20
2023-09-11T21:46:37.519Z,94.00
2023-09-11T21:49:05.481Z,93.80
2023-09-11T21:51:32.511Z,94.10
2023-09-11T21:54:13.447Z,93.80
2023-09-11T21:56:42.006Z,94.00
2023-09-11T21:59:08.888Z,93.50
2023-09-11T22:01:35.909Z,93.40
2023-09-11T22:04:04.942Z,93.60
2023-09-11T22:06:32.017Z,93.60
2023-09-11T22:08:59.003Z,94.00
2023-09-11T22:11:26.218Z,93.90
2023-09-11T22:13:53.381Z,93.90
2023-09-11T22:16:20.543Z,93.50
2023-09-11T22:18:47.728Z,93.50
2023-09-11T22:21:14.662Z,93.50
2023-09-11T22:23:41.614Z,93.70
2023-09-11T22:26:08.651Z,92.90
2023-09-11T22:28:36.236Z,93.40
2023-09-11T22:31:03.356Z,93.00
2023-09-11T22:33:30.267Z,92.80
2023-09-11T22:35:57.243Z,92.90
2023-09-11T22:38:24.213Z,92.80
2023-09-11T22:40:51.143Z,92.80
2023-09-11T22:43:17.954Z,92.80
2023-09-11T22:45:44.823Z,92.90
2023-09-11T22:48:11.872Z,93.40
2023-09-11T22:50:40.171Z,93.40
2023-09-11T22:53:07.283Z,93.20
2023-09-11T22:55:40.289Z,92.60
2023-09-11T22:58:09.412Z,93.00
2023-09-11T23:00:40.703Z,93.10
2023-09-11T23:03:09.332Z,92.90
2023-09-11T23:05:37.593Z,93.10
2023-09-11T23:08:04.904Z,92.90
2023-09-11T23:10:32.667Z,93.00
2023-09-11T23:12:59.866Z,93.10
2023-09-11T23:15:26.894Z,93.10
2023-09-11T23:17:53.797Z,93.20
2023-09-11T23:20:20.683Z,93.60
2023-09-11T23:22:47.544Z,93.80
2023-09-11T23:25:14.532Z,94.10
2023-09-11T23:27:41.526Z,94.10
2023-09-11T23:30:10.385Z,94.60
2023-09-11T23:32:37.530Z,94.50
2023-09-11T23:35:05.083Z,94.50
2023-09-11T23:37:32.151Z,94.80
2023-09-11T23:39:58.997Z,95.00
2023-09-11T23:42:25.994Z,95.00
2023-09-11T23:44:52.947Z,94.90
2023-09-11T23:47:19.819Z,95.10
2023-09-11T23:49:46.909Z,95.00
2023-09-11T23:52:25.442Z,95.40
2023-09-11T23:54:54.237Z,95.40
2023-09-11T23:57:21.171Z,95.30
2023-09-11T23:59:48.226Z,95.30
